Danboro, PA (18916)

12:29 PM EDT on July 30, 2015 (GMT -0400)
Country Ridge Estates | | Change Station
CLOSE
Current Station
Personal Weather Station
Location: Doylestown, PA
Elevation: 538 ft
Nearby Weather Stations

Elev 538 ft 40.36 °N, 75.13 °W | Updated 12 minutes ago

Overcast
Overcast
84.7 °F
Feels Like 94 °F
N
3.2
Wind Variable Wind from WSW

Today
High -- | Low -- °F
--% Chance of Precip.
Yesterday
High -- | Low -- °F
Precip. -- in
5:55 AM 8:17 PM
Waxing Gibbous, 99% visible
Pressure 29.89 in
Visibility 10.0 miles
Clouds Scattered Clouds 2100 ft
Overcast 3700 ft
Heat Index 94 °F
Dew Point 76 °F
Humidity 76%
Rainfall 0.00 in
Snow Depth Not available.
UV 3 out of 12
Pollen 6.40 out of 12
Air Quality Not available.
Flu Activity Not available.
SPECI KDYL 301621Z AUTO 24007KT 10SM SCT021 OVC037 29/23 A2989 RMK AO2 T02890233

More Conditions Fewer Conditions

Pressure 29.89 in
Visibility 10.0 miles
Clouds Scattered Clouds 2100 ft
Overcast 3700 ft
Heat Index 94 °F
Dew Point 76 °F
Humidity 76%
Rainfall 0.00 in
Snow Depth Not available.
UV 3 out of 12
Pollen 6.40 out of 12
Air Quality Not available.
Flu Activity Not available.
SPECI KDYL 301621Z AUTO 24007KT 10SM SCT021 OVC037 29/23 A2989 RMK AO2 T02890233

More Conditions Fewer Conditions

10-Day Weather Forecast

×

Almanac

Astronomy

Jul. 30, 2015 Rise Set
Actual Time
Civil Twilight
Nautical Twilight
Astronomical Twilight
Moon
Length of Visible Light
Length of Day
Tomorrow will be .
, % of the Moon is Illuminated

Today's Extremes

State Highs State Lows

Community

WunderPhotos

Upload Photos

1,842,417 photos uploaded!

WunderBlogs® & News

Nearby

Air Quality

  Air Quality AQ Index Pollutant
Not available.

Snow Depth

Station Depth Elevation

Earthquake Activity

City Distance Mag. Time & Date
Minimum magnitude displayed is 2.5.

Coastal Water Temperatures

Place Temperature

Stations

Nearby Weather Stations

Station Location Temp. Windchill Dew Point Humidity Wind Precip. Elev Updated Type